Sea Cloud II — 9HUE6 — position and weather

sailwx.info

Track history (hours):
 
Tides and Currents Weather Stations Pressure Air Temp Water Temp Dewpoint Dewpoint Depression Visibility Wind Speed Wind Dir Waves Ship Positions

Sea Cloud II

Ship's website: http://www.seacloud.com/en/the-ships/sea-cloud-ii.html

Last reported at 2014-Sep-30 19:34 UTC. Time now 2014-Sep-30 20:01 UTC.
Position N 36°48' E 014°20'.

Length 117 m; draft 5.8 m.

Type: Passenger vessel. MMSI: 248953000.

Date/timePositionNaut miles runAvg speedWind from/ knotsBaromVisibWave heightAir tempDewpointWater temp
2014-Sep-30 19:34N 36°48' E 014°20'8 7.7
2014-Sep-30 18:33N 36°44' E 014°28'20 1.4
2014-Sep-30 04:22N 36°39' E 014°53'6 7.1
2014-Sep-30 03:32N 36°37' E 014°60'  
2014-Sep-24 15:16N 42°51' E 009°50'2 0.2
2014-Sep-24 05:28N 42°54' E 009°51'23 5.7
2014-Sep-24 01:26N 43°16' E 009°41'10 9.7
2014-Sep-24 00:22N 43°26' E 009°43'810.0
2014-Sep-23 23:33N 43°34' E 009°46'9 9.0
2014-Sep-23 22:33N 43°42' E 009°50'10 9.5
2014-Sep-23 21:33N 43°52' E 009°52'1110.6
2014-Sep-23 20:33N 44°02' E 009°52'1 1.2
2014-Sep-23 19:33N 44°03' E 009°51'0 0.0
2014-Sep-23 18:33N 44°03' E 009°51'0 0.0
2014-Sep-23 17:33N 44°03' E 009°51'0 0.0
2014-Sep-23 16:33N 44°03' E 009°51'0 0.0
2014-Sep-23 15:33N 44°03' E 009°51'0 0.0
2014-Sep-23 14:30N 44°03' E 009°51'0 0.0
2014-Sep-23 13:33N 44°03' E 009°51'0 0.0
2014-Sep-23 12:33N 44°03' E 009°51'0 0.0
2014-Sep-23 11:33N 44°03' E 009°51'0 0.0
2014-Sep-23 10:33N 44°03' E 009°51'0 0.0
2014-Sep-23 09:33N 44°03' E 009°51'0 0.0
2014-Sep-23 08:33N 44°03' E 009°51'0 0.0
2014-Sep-23 07:33N 44°03' E 009°51'0 0.0
2014-Sep-23 06:33N 44°03' E 009°51'0 0.5
2014-Sep-23 05:33N 44°03' E 009°52'6 5.7
2014-Sep-23 04:33N 43°58' E 009°53'1110.7
2014-Sep-23 03:33N 43°53' E 009°39'1110.6
2014-Sep-23 02:33N 43°47' E 009°27'1111.0
2014-Sep-23 01:33N 43°44' E 009°13'1211.7
2014-Sep-23 00:33N 43°42' E 008°57'1211.7
2014-Sep-22 23:33N 43°39' E 008°41'1211.6
2014-Sep-22 22:33N 43°36' E 008°25'1111.4
2014-Sep-22 21:33N 43°35' E 008°10'1211.6
2014-Sep-22 20:33N 43°32' E 007°54'1211.7
2014-Sep-22 19:33N 43°30' E 007°38'1211.8
2014-Sep-22 18:30N 43°27' E 007°22'1111.7
2014-Sep-22 17:33N 43°25' E 007°07'1211.6
2014-Sep-22 16:33N 43°23' E 006°51'4 4.4
2014-Sep-22 15:32N 43°25' E 006°46'0 0.0
2014-Sep-22 14:32N 43°25' E 006°46'0 0.0
2014-Sep-22 13:32N 43°25' E 006°46'0 0.0
2014-Sep-22 12:29N 43°25' E 006°46'0 0.0
2014-Sep-22 11:32N 43°25' E 006°46'0 0.1
2014-Sep-22 10:20N 43°25' E 006°46'0 0.0
2014-Sep-22 09:32N 43°25' E 006°46'0 0.0
2014-Sep-22 08:29N 43°25' E 006°46'0 0.0
2014-Sep-22 07:32N 43°25' E 006°46'0 0.0
2014-Sep-22 06:29N 43°25' E 006°46'0 0.1
2014-Sep-22 05:33N 43°25' E 006°46'8 8.5
2014-Sep-22 04:33N 43°18' E 006°40'2 1.7
2014-Sep-22 03:28N 43°17' E 006°38'0 0.0
2014-Sep-22 02:10N 43°17' E 006°38'0 0.0
2014-Sep-22 01:28N 43°17' E 006°38'0 0.0
2014-Sep-22 00:28N 43°17' E 006°38'0 0.0
2014-Sep-21 23:25N 43°17' E 006°38'0 0.0
2014-Sep-21 21:28N 43°17' E 006°38'0 0.0
2014-Sep-21 20:19N 43°17' E 006°38'0 0.0
2014-Sep-21 19:22N 43°17' E 006°38'0 0.0
2014-Sep-21 18:16N 43°17' E 006°38'0 0.0
2014-Sep-21 17:16N 43°17' E 006°38'0 0.0
2014-Sep-21 16:28N 43°17' E 006°38'0 0.0
2014-Sep-21 15:22N 43°17' E 006°38'0 0.0
2014-Sep-21 14:25N 43°17' E 006°38'0 0.0
2014-Sep-21 13:28N 43°17' E 006°38'0 0.0
2014-Sep-21 12:16N 43°17' E 006°38'0 0.0
2014-Sep-21 11:28N 43°17' E 006°38'2 1.8
2014-Sep-21 10:34N 43°17' E 006°40'5 5.5
2014-Sep-21 09:33N 43°13' E 006°43'3 2.8
2014-Sep-21 08:33N 43°10' E 006°44'2 2.2
2014-Sep-21 07:33N 43°08' E 006°44'2 2.1
2014-Sep-21 06:33N 43°06' E 006°46'3 2.9
2014-Sep-21 05:33N 43°07' E 006°50'3 3.1
2014-Sep-21 04:33N 43°07' E 006°54'3 2.9
2014-Sep-21 03:33N 43°08' E 006°58'3 3.0
2014-Sep-21 02:33N 43°08' E 007°02'3 2.6
2014-Sep-21 01:33N 43°11' E 007°03'3 3.0
2014-Sep-21 00:33N 43°14' E 007°04'4 3.6
2014-Sep-20 23:33N 43°17' E 007°05'4 4.0
2014-Sep-20 22:33N 43°21' E 007°06'4 4.1
2014-Sep-20 21:33N 43°25' E 007°06'4 4.2
2014-Sep-20 20:33N 43°29' E 007°08'  
Track history (hours):
 
Tides and Currents Weather Stations Pressure Air Temp Water Temp Dewpoint Dewpoint Depression Visibility Wind Speed Wind Dir Waves Ship Positions

Sea Cloud II

Ship's website: http://www.seacloud.com/en/the-ships/sea-cloud-ii.html

Last reported at 2014-Sep-30 19:34 UTC. Time now 2014-Sep-30 20:01 UTC.
Position N 36°48' E 014°20'.

Length 117 m; draft 5.8 m.

Type: Passenger vessel. MMSI: 248953000.

Date/timePositionNaut miles runAvg speedWind from/ knotsBaromVisibWave heightAir tempDewpointWater temp
2014-Sep-30 19:34N 36°48' E 014°20'8 7.7
2014-Sep-30 18:33N 36°44' E 014°28'20 1.4
2014-Sep-30 04:22N 36°39' E 014°53'6 7.1
2014-Sep-30 03:32N 36°37' E 014°60'  
2014-Sep-24 15:16N 42°51' E 009°50'2 0.2
2014-Sep-24 05:28N 42°54' E 009°51'23 5.7
2014-Sep-24 01:26N 43°16' E 009°41'10 9.7
2014-Sep-24 00:22N 43°26' E 009°43'810.0
2014-Sep-23 23:33N 43°34' E 009°46'9 9.0
2014-Sep-23 22:33N 43°42' E 009°50'10 9.5
2014-Sep-23 21:33N 43°52' E 009°52'1110.6
2014-Sep-23 20:33N 44°02' E 009°52'1 1.2
2014-Sep-23 19:33N 44°03' E 009°51'0 0.0
2014-Sep-23 18:33N 44°03' E 009°51'0 0.0
2014-Sep-23 17:33N 44°03' E 009°51'0 0.0
2014-Sep-23 16:33N 44°03' E 009°51'0 0.0
2014-Sep-23 15:33N 44°03' E 009°51'0 0.0
2014-Sep-23 14:30N 44°03' E 009°51'0 0.0
2014-Sep-23 13:33N 44°03' E 009°51'0 0.0
2014-Sep-23 12:33N 44°03' E 009°51'0 0.0
2014-Sep-23 11:33N 44°03' E 009°51'0 0.0
2014-Sep-23 10:33N 44°03' E 009°51'0 0.0
2014-Sep-23 09:33N 44°03' E 009°51'0 0.0
2014-Sep-23 08:33N 44°03' E 009°51'0 0.0
2014-Sep-23 07:33N 44°03' E 009°51'0 0.0
2014-Sep-23 06:33N 44°03' E 009°51'0 0.5
2014-Sep-23 05:33N 44°03' E 009°52'6 5.7
2014-Sep-23 04:33N 43°58' E 009°53'1110.7
2014-Sep-23 03:33N 43°53' E 009°39'1110.6
2014-Sep-23 02:33N 43°47' E 009°27'1111.0
2014-Sep-23 01:33N 43°44' E 009°13'1211.7
2014-Sep-23 00:33N 43°42' E 008°57'1211.7
2014-Sep-22 23:33N 43°39' E 008°41'1211.6
2014-Sep-22 22:33N 43°36' E 008°25'1111.4
2014-Sep-22 21:33N 43°35' E 008°10'1211.6
2014-Sep-22 20:33N 43°32' E 007°54'1211.7
2014-Sep-22 19:33N 43°30' E 007°38'1211.8
2014-Sep-22 18:30N 43°27' E 007°22'1111.7
2014-Sep-22 17:33N 43°25' E 007°07'1211.6
2014-Sep-22 16:33N 43°23' E 006°51'4 4.4
2014-Sep-22 15:32N 43°25' E 006°46'0 0.0
2014-Sep-22 14:32N 43°25' E 006°46'0 0.0
2014-Sep-22 13:32N 43°25' E 006°46'0 0.0
2014-Sep-22 12:29N 43°25' E 006°46'0 0.0
2014-Sep-22 11:32N 43°25' E 006°46'0 0.1
2014-Sep-22 10:20N 43°25' E 006°46'0 0.0
2014-Sep-22 09:32N 43°25' E 006°46'0 0.0
2014-Sep-22 08:29N 43°25' E 006°46'0 0.0
2014-Sep-22 07:32N 43°25' E 006°46'0 0.0
2014-Sep-22 06:29N 43°25' E 006°46'0 0.1
2014-Sep-22 05:33N 43°25' E 006°46'8 8.5
2014-Sep-22 04:33N 43°18' E 006°40'2 1.7
2014-Sep-22 03:28N 43°17' E 006°38'0 0.0
2014-Sep-22 02:10N 43°17' E 006°38'0 0.0
2014-Sep-22 01:28N 43°17' E 006°38'0 0.0
2014-Sep-22 00:28N 43°17' E 006°38'0 0.0
2014-Sep-21 23:25N 43°17' E 006°38'0 0.0
2014-Sep-21 21:28N 43°17' E 006°38'0 0.0
2014-Sep-21 20:19N 43°17' E 006°38'0 0.0
2014-Sep-21 19:22N 43°17' E 006°38'0 0.0
2014-Sep-21 18:16N 43°17' E 006°38'0 0.0
2014-Sep-21 17:16N 43°17' E 006°38'0 0.0
2014-Sep-21 16:28N 43°17' E 006°38'0 0.0
2014-Sep-21 15:22N 43°17' E 006°38'0 0.0
2014-Sep-21 14:25N 43°17' E 006°38'0 0.0
2014-Sep-21 13:28N 43°17' E 006°38'0 0.0
2014-Sep-21 12:16N 43°17' E 006°38'0 0.0
2014-Sep-21 11:28N 43°17' E 006°38'2 1.8
2014-Sep-21 10:34N 43°17' E 006°40'5 5.5
2014-Sep-21 09:33N 43°13' E 006°43'3 2.8
2014-Sep-21 08:33N 43°10' E 006°44'2 2.2
2014-Sep-21 07:33N 43°08' E 006°44'2 2.1
2014-Sep-21 06:33N 43°06' E 006°46'3 2.9
2014-Sep-21 05:33N 43°07' E 006°50'3 3.1
2014-Sep-21 04:33N 43°07' E 006°54'3 2.9
2014-Sep-21 03:33N 43°08' E 006°58'3 3.0
2014-Sep-21 02:33N 43°08' E 007°02'3 2.6
2014-Sep-21 01:33N 43°11' E 007°03'3 3.0
2014-Sep-21 00:33N 43°14' E 007°04'4 3.6
2014-Sep-20 23:33N 43°17' E 007°05'4 4.0
2014-Sep-20 22:33N 43°21' E 007°06'4 4.1
2014-Sep-20 21:33N 43°25' E 007°06'4 4.2
2014-Sep-20 20:33N 43°29' E 007°08'  

Dump ship's entire track history